createdAt,value
2022-12-06T00:09:36.376Z,3.81
2022-12-06T00:14:45.876Z,3.75
2022-12-06T00:19:55.107Z,3.75
2022-12-06T00:30:15.571Z,3.75
2022-12-06T00:35:24.371Z,3.75
2022-12-06T00:40:33.966Z,3.75
2022-12-06T00:45:43.342Z,3.75
2022-12-06T00:50:52.564Z,3.81
2022-12-06T00:56:01.819Z,3.75
2022-12-06T01:01:11.282Z,3.75
2022-12-06T01:06:20.591Z,3.75
2022-12-06T01:16:39.553Z,3.75
2022-12-06T01:21:48.709Z,3.75
2022-12-06T01:26:57.886Z,3.75
2022-12-06T01:42:02.689Z,3.62
2022-12-06T01:47:12.099Z,3.56
2022-12-06T01:52:21.450Z,3.56
2022-12-06T01:57:30.790Z,3.5
2022-12-06T02:02:40.201Z,3.5
2022-12-06T02:07:49.593Z,3.5
2022-12-06T02:12:59.021Z,3.56
2022-12-06T02:18:08.260Z,3.56
2022-12-06T02:23:19.729Z,3.56
2022-12-06T02:28:28.753Z,3.56
2022-12-06T02:33:37.691Z,3.56
2022-12-06T02:38:46.649Z,3.56
2022-12-06T02:43:55.781Z,3.56
2022-12-06T02:49:04.656Z,3.56
2022-12-06T02:54:13.583Z,3.56
2022-12-06T02:59:22.580Z,3.56
2022-12-06T03:04:31.628Z,3.5
2022-12-06T03:09:40.833Z,3.5
2022-12-06T03:14:49.817Z,3.5
2022-12-06T03:19:59.078Z,3.5
2022-12-06T03:25:07.956Z,3.44
2022-12-06T03:30:16.955Z,3.44
2022-12-06T03:40:24.152Z,3.37
2022-12-06T03:45:33.269Z,3.37
2022-12-06T03:50:42.108Z,3.37
2022-12-06T03:55:51.052Z,3.37
2022-12-06T04:01:00.189Z,3.44
2022-12-06T04:06:09.058Z,3.44
2022-12-06T04:11:18.419Z,3.44
2022-12-06T04:16:27.420Z,3.44
2022-12-06T04:21:36.363Z,3.44
2022-12-06T04:26:45.412Z,3.37
2022-12-06T04:31:54.619Z,3.37
2022-12-06T04:47:00.019Z,3.37
2022-12-06T04:52:08.879Z,3.31
2022-12-06T04:57:17.808Z,3.31
2022-12-06T05:02:26.733Z,3.31
2022-12-06T05:17:32.662Z,3.37
2022-12-06T05:22:41.548Z,3.37
2022-12-06T05:27:50.674Z,3.37
2022-12-06T05:32:59.595Z,3.37
2022-12-06T05:38:08.619Z,3.37
2022-12-06T05:43:17.463Z,3.31
2022-12-06T05:48:26.581Z,3.31
2022-12-06T05:53:35.459Z,3.37
2022-12-06T05:58:47.305Z,3.37
2022-12-06T06:03:56.357Z,3.37
2022-12-06T06:09:05.366Z,3.37
2022-12-06T06:14:14.123Z,3.37
2022-12-06T06:19:23.137Z,3.37
2022-12-06T06:24:32.146Z,3.37
2022-12-06T06:29:45.249Z,3.5
2022-12-06T06:34:50.326Z,3.5
2022-12-06T06:39:59.576Z,3.56
2022-12-06T06:45:08.221Z,3.5
2022-12-06T06:50:17.208Z,3.56
2022-12-06T06:55:26.177Z,3.44
2022-12-06T07:00:35.232Z,3.44
2022-12-06T07:05:44.227Z,3.44
2022-12-06T07:10:53.259Z,3.44
2022-12-06T07:16:02.232Z,3.44
2022-12-06T07:21:11.218Z,3.44
2022-12-06T07:26:19.996Z,3.44
2022-12-06T07:31:29.092Z,3.44
2022-12-06T07:36:38.456Z,3.44
2022-12-06T07:41:47.407Z,3.44
2022-12-06T07:46:56.545Z,3.5
2022-12-06T07:57:03.801Z,3.5
2022-12-06T08:02:13.032Z,3.56
2022-12-06T08:07:22.052Z,3.56
2022-12-06T08:12:30.976Z,3.5
2022-12-06T08:17:42.854Z,3.56
2022-12-06T08:28:01.027Z,3.56
2022-12-06T08:33:09.938Z,3.62
2022-12-06T08:38:18.829Z,3.69
2022-12-06T08:43:27.815Z,3.75
2022-12-06T08:48:41.338Z,3.94
2022-12-06T08:53:45.822Z,4.06
2022-12-06T08:58:54.809Z,4.19
2022-12-06T09:04:03.709Z,4.31
2022-12-06T09:09:12.588Z,4.37
2022-12-06T09:14:22.506Z,4.5
2022-12-06T09:34:24.918Z,4.25
2022-12-06T09:44:42.985Z,4.19
2022-12-06T10:04:46.527Z,4.19
2022-12-06T10:09:55.414Z,4.06
2022-12-06T10:15:04.401Z,3.94
2022-12-06T10:20:13.538Z,4
2022-12-06T10:30:31.469Z,4.19
2022-12-06T10:35:40.546Z,4.25
2022-12-06T10:40:49.559Z,4.31
2022-12-06T10:45:58.629Z,4.37
2022-12-06T10:51:07.818Z,4.31
2022-12-06T10:56:16.729Z,4.44
2022-12-06T11:01:25.745Z,4.44
2022-12-06T11:06:34.692Z,4.5
2022-12-06T11:11:43.600Z,4.44
2022-12-06T11:16:52.465Z,4.37
2022-12-06T11:22:01.575Z,4.5
2022-12-06T11:27:10.547Z,4.5
2022-12-06T11:32:19.777Z,4.56
2022-12-06T11:37:28.840Z,4.81
2022-12-06T11:42:37.733Z,4.75
2022-12-06T11:47:46.697Z,4.87
2022-12-06T11:52:55.954Z,4.94
2022-12-06T11:58:05.013Z,5.06
2022-12-06T12:03:14.210Z,5.06
2022-12-06T12:08:25.303Z,5.19
2022-12-06T12:13:32.248Z,5.31
2022-12-06T12:18:41.198Z,5.25
2022-12-06T12:23:50.068Z,5.06
2022-12-06T12:28:59.104Z,5.12
2022-12-06T12:34:08.218Z,5.25
2022-12-06T12:39:17.255Z,5.25
2022-12-06T12:44:37.400Z,5.19
2022-12-06T12:49:38.180Z,5
2022-12-06T12:54:47.512Z,5.19
2022-12-06T12:59:59.656Z,5.12
2022-12-06T13:05:31.836Z,5.06
2022-12-06T13:10:20.736Z,5.12
2022-12-06T13:15:29.627Z,5.19
2022-12-06T13:20:38.633Z,5.12
2022-12-06T13:25:47.482Z,5.06
2022-12-06T13:30:56.476Z,5.12
2022-12-06T13:36:05.366Z,5.19
2022-12-06T13:41:14.460Z,5.19
2022-12-06T13:46:23.433Z,5.19
2022-12-06T13:51:33.246Z,5.25
2022-12-06T13:57:03.765Z,5.19
2022-12-06T14:02:12.898Z,5.19
2022-12-06T14:07:23.656Z,5
2022-12-06T14:12:32.625Z,5
2022-12-06T14:18:02.461Z,4.94
2022-12-06T14:25:24.954Z,4.87
2022-12-06T14:30:31.756Z,4.81
2022-12-06T14:36:43.010Z,4.81
2022-12-06T14:41:50.291Z,4.75
2022-12-06T14:47:18.262Z,4.69
2022-12-06T14:54:40.806Z,4.56
2022-12-06T15:03:47.850Z,4.5
2022-12-06T15:09:00.899Z,4.44
2022-12-06T15:14:08.913Z,4.37
2022-12-06T15:32:29.587Z,4.25
2022-12-06T15:37:50.445Z,4.25
2022-12-06T15:47:51.848Z,4.12
2022-12-06T15:53:59.764Z,4.12
2022-12-06T15:59:08.256Z,4.06
2022-12-06T16:04:17.326Z,4.06
2022-12-06T16:09:26.496Z,4.06
2022-12-06T16:14:35.951Z,4.06
2022-12-06T16:19:45.266Z,4
2022-12-06T16:24:54.590Z,4
2022-12-06T16:30:03.894Z,3.94
2022-12-06T16:35:13.409Z,3.87
2022-12-06T16:40:22.689Z,3.81
2022-12-06T16:45:32.019Z,3.81
2022-12-06T16:50:41.499Z,3.75
2022-12-06T16:55:50.746Z,3.69
2022-12-06T17:01:00.074Z,3.62
2022-12-06T17:06:09.417Z,3.56
2022-12-06T17:11:18.805Z,3.44
2022-12-06T17:16:28.195Z,3.37
2022-12-06T17:21:37.569Z,3.37
2022-12-06T17:26:46.831Z,3.31
2022-12-06T17:31:59.149Z,3.31
2022-12-06T17:37:08.530Z,3.37
2022-12-06T17:42:17.889Z,3.44
2022-12-06T17:47:27.419Z,3.56
2022-12-06T17:52:36.799Z,3.69
2022-12-06T17:57:46.040Z,3.75
2022-12-06T18:02:55.519Z,3.75
2022-12-06T18:08:04.729Z,3.75
2022-12-06T18:13:13.976Z,3.81
2022-12-06T18:18:23.345Z,3.87
2022-12-06T18:23:32.761Z,3.81
2022-12-06T18:28:42.071Z,3.75
2022-12-06T18:33:51.317Z,3.69
2022-12-06T18:39:00.681Z,3.69
2022-12-06T18:44:09.938Z,3.75
2022-12-06T18:49:22.348Z,3.75
2022-12-06T18:54:31.775Z,3.69
2022-12-06T19:04:38.723Z,3.87
2022-12-06T19:09:48.147Z,3.81
2022-12-06T19:14:57.492Z,3.87
2022-12-06T19:20:06.803Z,3.87
2022-12-06T19:25:16.095Z,3.94
2022-12-06T19:30:25.357Z,4
2022-12-06T19:35:34.488Z,4
2022-12-06T19:40:43.899Z,4.06
2022-12-06T19:45:53.124Z,4
2022-12-06T19:56:00.085Z,3.87
2022-12-06T20:01:09.392Z,3.75
2022-12-06T20:06:18.697Z,3.69
2022-12-06T20:21:22.957Z,3.69
2022-12-06T20:36:27.496Z,3.62
2022-12-06T20:41:36.977Z,3.56
2022-12-06T20:46:46.433Z,3.5
2022-12-06T20:51:55.858Z,3.5
2022-12-06T20:57:05.185Z,3.5
2022-12-06T21:17:07.251Z,3.5
2022-12-06T21:22:16.608Z,3.56
2022-12-06T21:27:25.943Z,3.56
2022-12-06T21:32:35.357Z,3.5
2022-12-06T21:37:44.558Z,3.44
2022-12-06T21:42:54.074Z,3.44
2022-12-06T21:48:03.489Z,3.44
2022-12-06T21:53:12.851Z,3.44
2022-12-06T21:58:22.261Z,3.44
2022-12-06T22:03:34.711Z,3.44
2022-12-06T22:08:46.067Z,3.44
2022-12-06T22:13:54.972Z,3.44
2022-12-06T22:29:00.152Z,3.37
2022-12-06T22:34:09.063Z,3.37
2022-12-06T22:39:19.316Z,3.12
2022-12-06T22:44:30.974Z,2.75
2022-12-06T22:49:39.622Z,2.37
2022-12-06T22:54:50.572Z,2.12
2022-12-06T23:09:54.221Z,2.56
2022-12-06T23:15:03.623Z,2.62
2022-12-06T23:20:13.123Z,2.69
2022-12-06T23:25:22.441Z,2.69
2022-12-06T23:30:31.719Z,2.75
2022-12-06T23:35:41.434Z,2.75
2022-12-06T23:45:50.245Z,2.81
